Logan, Minnesota
Current Conditions -  °F | °C
As of 12:34 PM on Saturday 25 Oct 2014 (Local Time) from KAIT Reporting Station
Clear Clear  
Wind Chill: 16°   Ceiling: Unl
Heat Index: 16°   Visibility: 10mi
Dew Point: -3°   Wind: 9mph
Humidity: 27%   Direction: 270°W
Pressure: 29.98"   Gusts: NA
Location:  46.7281°N, 93.6101°W
Report Text: KAIT 251734Z AUTO 27008KT 220V300 10SM CLR 16/M03 A2998 RMK AO2
Loading
Personal Weather Stations






























Interactive Weather Map
Tropical Storm Tracking
New forecast layout! Learn more

10-Day Weather Forecast

Advertisements
Track Severe Weather on mobile